createdAt,value
2017-04-17T00:00:41.491Z,0
2017-04-17T00:01:41.826Z,0
2017-04-17T00:02:41.853Z,0
2017-04-17T00:03:41.882Z,0
2017-04-17T00:04:42.160Z,0
2017-04-17T00:05:41.935Z,0
2017-04-17T00:06:41.958Z,0
2017-04-17T00:07:41.993Z,0
2017-04-17T00:08:42.018Z,0
2017-04-17T00:09:41.993Z,0
2017-04-17T00:10:42.067Z,0
2017-04-17T00:11:41.468Z,0
2017-04-17T00:12:42.128Z,0
2017-04-17T00:13:41.534Z,0
2017-04-17T00:14:42.110Z,0
2017-04-17T00:15:41.887Z,0
2017-04-17T00:16:42.235Z,0
2017-04-17T00:17:41.821Z,0
2017-04-17T00:18:42.294Z,0
2017-04-17T00:19:42.570Z,0
2017-04-17T00:20:42.343Z,0
2017-04-17T00:21:42.076Z,0
2017-04-17T00:22:42.388Z,0
2017-04-17T00:23:42.430Z,0
2017-04-17T00:24:42.704Z,0
2017-04-17T00:25:42.487Z,0
2017-04-17T00:26:42.695Z,0
2017-04-17T00:27:42.221Z,0
2017-04-17T00:28:42.553Z,0
2017-04-17T00:29:42.517Z,0
2017-04-17T00:30:42.609Z,0
2017-04-17T00:31:42.639Z,0
2017-04-17T00:32:42.669Z,0
2017-04-17T00:33:42.697Z,0
2017-04-17T00:34:42.686Z,0
2017-04-17T00:35:42.434Z,0
2017-04-17T00:36:42.778Z,0
2017-04-17T00:37:42.801Z,0
2017-04-17T00:38:42.856Z,0
2017-04-17T00:39:43.110Z,0
2017-04-17T00:40:42.883Z,0
2017-04-17T00:41:42.911Z,0
2017-04-17T00:42:42.944Z,0
2017-04-17T00:43:42.961Z,0
2017-04-17T00:44:43.248Z,0
2017-04-17T00:45:43.006Z,0
2017-04-17T00:46:43.043Z,0
2017-04-17T00:47:42.760Z,0
2017-04-17T00:48:42.789Z,0
2017-04-17T00:49:43.073Z,0
2017-04-17T00:50:42.525Z,0
2017-04-17T00:51:43.183Z,0
2017-04-17T00:52:43.199Z,0
2017-04-17T00:53:43.236Z,0
2017-04-17T00:54:43.196Z,0
2017-04-17T00:55:42.980Z,0
2017-04-17T00:56:43.322Z,0
2017-04-17T00:57:43.020Z,0
2017-04-17T00:58:43.045Z,0
2017-04-17T00:59:43.348Z,0
2017-04-17T01:00:42.489Z,0
2017-04-17T01:01:43.461Z,0
2017-04-17T01:02:43.487Z,0
2017-04-17T01:03:43.208Z,0
2017-04-17T01:04:43.160Z,0
2017-04-17T01:05:43.254Z,0
2017-04-17T01:06:43.586Z,0
2017-04-17T01:07:43.610Z,0
2017-04-17T01:08:42.715Z,0
2017-04-17T01:09:43.347Z,0
2017-04-17T01:10:43.373Z,0
2017-04-17T01:11:43.409Z,0
2017-04-17T01:12:43.431Z,0
2017-04-17T01:13:43.144Z,0
2017-04-17T01:14:44.052Z,0
2017-04-17T01:15:43.848Z,0
2017-04-17T01:16:43.854Z,0
2017-04-17T01:17:43.254Z,0
2017-04-17T01:18:43.298Z,0
2017-04-17T01:19:44.479Z,0
2017-04-17T01:20:43.961Z,0
2017-04-17T01:21:43.680Z,0
2017-04-17T01:22:44.014Z,0
2017-04-17T01:23:43.418Z,0
2017-04-17T01:24:44.315Z,0
2017-04-17T01:25:44.096Z,0
2017-04-17T01:26:43.813Z,0
2017-04-17T01:27:43.537Z,0
2017-04-17T01:28:44.183Z,0
2017-04-17T01:29:44.451Z,0
2017-04-17T01:30:43.911Z,0
2017-04-17T01:31:43.940Z,0
2017-04-17T01:32:44.293Z,0
2017-04-17T01:33:43.694Z,0
2017-04-17T01:34:44.578Z,0
2017-04-17T01:35:44.047Z,0
2017-04-17T01:36:44.085Z,0
2017-04-17T01:37:44.417Z,0
2017-04-17T01:38:44.442Z,0
2017-04-17T01:39:44.167Z,0
2017-04-17T01:40:43.872Z,0
2017-04-17T01:41:44.217Z,0
2017-04-17T01:42:44.237Z,0
2017-04-17T01:43:44.275Z,0
2017-04-17T01:44:44.289Z,0
2017-04-17T01:45:44.623Z,0
2017-04-17T01:46:44.875Z,0
2017-04-17T01:47:44.073Z,0
2017-04-17T01:48:44.094Z,0
2017-04-17T01:49:44.150Z,0
2017-04-17T01:50:44.445Z,0
2017-04-17T01:51:44.479Z,0
2017-04-17T01:52:44.511Z,0
2017-04-17T01:53:44.537Z,0
2017-04-17T01:54:44.865Z,0
2017-04-17T01:55:44.904Z,0
2017-04-17T01:56:44.611Z,0
2017-04-17T01:57:44.328Z,0
2017-04-17T01:58:44.674Z,0
2017-04-17T01:59:44.693Z,0
2017-04-17T02:00:44.406Z,0
2017-04-17T02:01:44.748Z,0
2017-04-17T02:02:44.781Z,0
2017-04-17T02:03:44.804Z,0
2017-04-17T02:04:45.139Z,0
2017-04-17T02:05:44.858Z,0
2017-04-17T02:06:45.199Z,0
2017-04-17T02:07:44.916Z,0
2017-04-17T02:08:44.981Z,0
2017-04-17T02:09:45.273Z,0
2017-04-17T02:10:45.558Z,0
2017-04-17T02:11:45.319Z,0
2017-04-17T02:12:44.739Z,0
2017-04-17T02:13:45.526Z,0
2017-04-17T02:14:45.096Z,0
2017-04-17T02:15:45.378Z,0
2017-04-17T02:16:45.466Z,0
2017-04-17T02:17:45.500Z,0
2017-04-17T02:18:45.249Z,0
2017-04-17T02:19:45.549Z,0
2017-04-17T02:20:45.837Z,0
2017-04-17T02:21:45.591Z,0
2017-04-17T02:22:45.416Z,0
2017-04-17T02:23:45.345Z,0
2017-04-17T02:24:45.396Z,0
2017-04-17T02:25:45.961Z,0
2017-04-17T02:26:45.734Z,0
2017-04-17T02:27:45.147Z,0
2017-04-17T02:28:45.788Z,0
2017-04-17T02:29:45.508Z,0
2017-04-17T02:30:45.781Z,0
2017-04-17T02:31:45.866Z,0
2017-04-17T02:32:45.579Z,0
2017-04-17T02:33:45.608Z,0
2017-04-17T02:34:45.632Z,0
2017-04-17T02:35:45.909Z,0
2017-04-17T02:36:46.001Z,0
2017-04-17T02:37:46.026Z,0
2017-04-17T02:38:45.779Z,0
2017-04-17T02:39:45.785Z,0
2017-04-17T02:40:46.349Z,0
2017-04-17T02:41:46.142Z,0
2017-04-17T02:42:46.162Z,0
2017-04-17T02:43:45.883Z,0
2017-04-17T02:44:46.216Z,0
2017-04-17T02:45:46.493Z,0
2017-04-17T02:46:45.961Z,0
2017-04-17T02:47:46.290Z,0
2017-04-17T02:48:46.335Z,0
2017-04-17T02:49:46.356Z,0
2017-04-17T02:50:46.624Z,0
2017-04-17T02:51:46.409Z,0
2017-04-17T02:52:46.113Z,0
2017-04-17T02:53:46.142Z,0
2017-04-17T02:54:46.483Z,0
2017-04-17T02:55:46.773Z,0
2017-04-17T02:56:46.567Z,0
2017-04-17T02:57:46.566Z,0
2017-04-17T02:58:46.279Z,0
2017-04-17T02:59:46.307Z,0
2017-04-17T03:00:46.587Z,0
2017-04-17T03:01:46.345Z,0
2017-04-17T03:02:46.705Z,0
2017-04-17T03:03:46.410Z,0
2017-04-17T03:04:46.750Z,0
2017-04-17T03:05:46.719Z,0
2017-04-17T03:06:46.601Z,0
2017-04-17T03:07:46.210Z,0
2017-04-17T03:08:46.545Z,0
2017-04-17T03:09:46.579Z,0
2017-04-17T03:10:46.847Z,0
2017-04-17T03:11:46.943Z,0
2017-04-17T03:12:46.345Z,0
2017-04-17T03:13:46.988Z,0
2017-04-17T03:14:46.694Z,0
2017-04-17T03:15:47.299Z,0
2017-04-17T03:16:46.572Z,0
2017-04-17T03:17:46.787Z,0
2017-04-17T03:18:47.118Z,0
2017-04-17T03:19:47.142Z,0
2017-04-17T03:20:47.121Z,0
2017-04-17T03:21:47.204Z,0
2017-04-17T03:22:47.237Z,0
2017-04-17T03:23:46.634Z,0
2017-04-17T03:24:46.969Z,0
2017-04-17T03:25:47.335Z,0
2017-04-17T03:26:46.740Z,0
2017-04-17T03:27:47.368Z,0
2017-04-17T03:28:47.077Z,0
2017-04-17T03:29:47.106Z,0
2017-04-17T03:30:47.698Z,0
2017-04-17T03:31:47.476Z,0
2017-04-17T03:32:47.496Z,0
2017-04-17T03:33:47.117Z,0
2017-04-17T03:34:47.550Z,0
2017-04-17T03:35:47.266Z,0
2017-04-17T03:36:47.615Z,0
2017-04-17T03:37:47.637Z,0
2017-04-17T03:38:47.657Z,0
2017-04-17T03:39:46.745Z,0
2017-04-17T03:40:47.709Z,0
2017-04-17T03:41:47.434Z,0
2017-04-17T03:42:47.766Z,0
2017-04-17T03:43:47.168Z,0
2017-04-17T03:44:47.509Z,0
2017-04-17T03:45:47.853Z,0
2017-04-17T03:46:47.562Z,0
2017-04-17T03:47:47.904Z,0
2017-04-17T03:48:47.924Z,0
2017-04-17T03:49:47.953Z,0
2017-04-17T03:50:47.694Z,0
2017-04-17T03:51:48.010Z,0
2017-04-17T03:52:48.031Z,0
2017-04-17T03:53:47.744Z,0
2017-04-17T03:54:47.460Z,0
2017-04-17T03:55:47.792Z,0
2017-04-17T03:56:47.829Z,0
2017-04-17T03:57:48.168Z,0
2017-04-17T03:58:48.207Z,0
2017-04-17T03:59:48.219Z,0
2017-04-17T04:00:48.288Z,0
2017-04-17T04:01:48.271Z,0
2017-04-17T04:02:47.992Z,0
2017-04-17T04:03:48.327Z,0
2017-04-17T04:04:48.052Z,0
2017-04-17T04:05:47.756Z,0
2017-04-17T04:06:48.350Z,0
2017-04-17T04:07:48.131Z,0
2017-04-17T04:08:48.475Z,0
2017-04-17T04:09:48.487Z,0
2017-04-17T04:10:48.520Z,0
2017-04-17T04:11:48.504Z,0
2017-04-17T04:12:48.578Z,0
2017-04-17T04:13:48.603Z,0
2017-04-17T04:14:48.627Z,0
2017-04-17T04:15:48.333Z,0
2017-04-17T04:16:48.617Z,0
2017-04-17T04:17:48.742Z,4
2017-04-17T04:18:48.426Z,4
2017-04-17T04:19:48.760Z,4
2017-04-17T04:20:48.785Z,4
2017-04-17T04:21:49.065Z,4
2017-04-17T04:22:48.830Z,4
2017-04-17T04:23:48.550Z,4
2017-04-17T04:24:48.887Z,8
2017-04-17T04:25:48.916Z,8
2017-04-17T04:26:48.880Z,8
2017-04-17T04:27:48.973Z,8
2017-04-17T04:28:48.682Z,4
2017-04-17T04:29:49.015Z,4
2017-04-17T04:30:49.048Z,8
2017-04-17T04:31:49.013Z,8
2017-04-17T04:32:49.098Z,8
2017-04-17T04:33:49.134Z,8
2017-04-17T04:34:49.164Z,8
2017-04-17T04:35:49.227Z,12
2017-04-17T04:36:49.140Z,12
2017-04-17T04:37:48.912Z,16
2017-04-17T04:38:48.949Z,16
2017-04-17T04:39:48.983Z,20
2017-04-17T04:40:49.311Z,20
2017-04-17T04:41:49.584Z,28
2017-04-17T04:42:49.369Z,32
2017-04-17T04:43:49.391Z,36
2017-04-17T04:44:49.371Z,44
2017-04-17T04:45:49.135Z,44
2017-04-17T04:46:49.723Z,48
2017-04-17T04:47:49.500Z,52
2017-04-17T04:48:49.522Z,52
2017-04-17T04:49:49.225Z,52
2017-04-17T04:50:49.582Z,60
2017-04-17T04:51:49.853Z,64
2017-04-17T04:52:49.640Z,68
2017-04-17T04:53:49.789Z,68
2017-04-17T04:54:49.686Z,76
2017-04-17T04:55:49.398Z,80
2017-04-17T04:56:49.991Z,76
2017-04-17T04:57:49.145Z,80
2017-04-17T04:58:49.797Z,84
2017-04-17T04:59:49.187Z,80
2017-04-17T05:00:49.846Z,76
2017-04-17T05:01:49.575Z,80
2017-04-17T05:02:49.901Z,76
2017-04-17T05:03:49.934Z,80
2017-04-17T05:04:49.642Z,76
2017-04-17T05:05:49.666Z,80
2017-04-17T05:06:50.256Z,76
2017-04-17T05:07:49.729Z,80
2017-04-17T05:08:50.063Z,84
2017-04-17T05:09:50.084Z,96
2017-04-17T05:10:49.758Z,120
2017-04-17T05:11:50.389Z,152
2017-04-17T05:12:49.863Z,192
2017-04-17T05:13:49.881Z,216
2017-04-17T05:14:50.207Z,232
2017-04-17T05:15:50.246Z,256
2017-04-17T05:16:50.533Z,252
2017-04-17T05:17:50.305Z,232
2017-04-17T05:18:50.329Z,216
2017-04-17T05:19:50.146Z,240
2017-04-17T05:20:50.381Z,292
2017-04-17T05:21:50.030Z,308
2017-04-17T05:22:50.119Z,300
2017-04-17T05:23:50.151Z,300
2017-04-17T05:24:50.488Z,308
2017-04-17T05:25:49.889Z,336
2017-04-17T05:26:50.166Z,364
2017-04-17T05:27:50.267Z,400
2017-04-17T05:28:50.284Z,456
2017-04-17T05:29:50.302Z,488
2017-04-17T05:30:50.327Z,412
2017-04-17T05:31:50.609Z,372
2017-04-17T05:32:50.691Z,384
2017-04-17T05:33:50.408Z,356
2017-04-17T05:34:50.752Z,360
2017-04-17T05:35:50.459Z,404
2017-04-17T05:36:51.058Z,420
2017-04-17T05:37:50.530Z,400
2017-04-17T05:38:50.550Z,360
2017-04-17T05:39:50.267Z,372
2017-04-17T05:40:50.910Z,456
2017-04-17T05:41:50.630Z,520
2017-04-17T05:42:50.969Z,584
2017-04-17T05:43:50.684Z,608
2017-04-17T05:44:50.702Z,624
2017-04-17T05:45:50.099Z,652
2017-04-17T05:46:51.077Z,688
2017-04-17T05:47:51.111Z,692
2017-04-17T05:48:50.822Z,652
2017-04-17T05:49:50.847Z,608
2017-04-17T05:50:50.868Z,596
2017-04-17T05:51:51.213Z,620
2017-04-17T05:52:51.242Z,612
2017-04-17T05:53:50.951Z,604
2017-04-17T05:54:51.424Z,676
2017-04-17T05:55:51.315Z,752
2017-04-17T05:56:51.349Z,764
2017-04-17T05:57:51.379Z,756
2017-04-17T05:58:51.401Z,648
2017-04-17T05:59:51.116Z,580
2017-04-17T06:00:51.456Z,544
2017-04-17T06:01:51.157Z,460
2017-04-17T06:02:51.453Z,444
2017-04-17T06:03:51.537Z,436
2017-04-17T06:04:51.564Z,448
2017-04-17T06:05:51.596Z,388
2017-04-17T06:06:51.305Z,300
2017-04-17T06:07:51.585Z,276
2017-04-17T06:08:51.363Z,308
2017-04-17T06:09:51.698Z,376
2017-04-17T06:10:51.100Z,452
2017-04-17T06:11:51.171Z,500
2017-04-17T06:12:52.034Z,480
2017-04-17T06:13:51.494Z,428
2017-04-17T06:14:51.839Z,428
2017-04-17T06:15:51.855Z,468
2017-04-17T06:16:51.572Z,488
2017-04-17T06:17:52.165Z,488
2017-04-17T06:18:51.941Z,484
2017-04-17T06:19:51.967Z,472
2017-04-17T06:20:51.987Z,468
2017-04-17T06:21:51.710Z,456
2017-04-17T06:22:51.985Z,460
2017-04-17T06:23:52.099Z,472
2017-04-17T06:24:51.815Z,636
2017-04-17T06:25:51.815Z,644
2017-04-17T06:26:51.853Z,500
2017-04-17T06:27:52.129Z,528
2017-04-17T06:28:51.702Z,524
2017-04-17T06:29:52.238Z,480
2017-04-17T06:30:51.638Z,476
2017-04-17T06:31:52.287Z,556
2017-04-17T06:32:52.573Z,740
2017-04-17T06:33:52.349Z,752
2017-04-17T06:34:52.375Z,668
2017-04-17T06:35:52.425Z,800
2017-04-17T06:36:52.141Z,960
2017-04-17T06:37:52.388Z,996
2017-04-17T06:38:52.165Z,908
2017-04-17T06:39:52.508Z,944
2017-04-17T06:40:51.594Z,856
2017-04-17T06:41:52.239Z,712
2017-04-17T06:42:52.833Z,664
2017-04-17T06:43:52.616Z,884
2017-04-17T06:44:52.338Z,952
2017-04-17T06:45:52.059Z,1104
2017-04-17T06:46:52.691Z,1124
2017-04-17T06:47:52.970Z,1048
2017-04-17T06:48:52.750Z,1104
2017-04-17T06:49:52.770Z,1052
2017-04-17T06:50:52.809Z,952
2017-04-17T06:51:52.863Z,744
2017-04-17T06:52:52.799Z,716
2017-04-17T06:53:52.897Z,644
2017-04-17T06:54:52.289Z,708
2017-04-17T06:55:52.629Z,812
2017-04-17T06:56:52.966Z,860
2017-04-17T06:57:52.940Z,888
2017-04-17T06:58:53.032Z,900
2017-04-17T06:59:52.425Z,972
2017-04-17T07:00:52.778Z,856
2017-04-17T07:01:53.103Z,828
2017-04-17T07:02:52.762Z,944
2017-04-17T07:03:53.154Z,1052
2017-04-17T07:04:53.037Z,1076
2017-04-17T07:05:52.577Z,1068
2017-04-17T07:06:52.610Z,1032
2017-04-17T07:07:53.510Z,1068
2017-04-17T07:08:52.676Z,1180
2017-04-17T07:09:53.017Z,1176
2017-04-17T07:10:53.073Z,1216
2017-04-17T07:11:53.058Z,1192
2017-04-17T07:12:53.758Z,1128
2017-04-17T07:13:53.424Z,1492
2017-04-17T07:14:53.150Z,1656
2017-04-17T07:15:53.170Z,1592
2017-04-17T07:16:53.518Z,1536
2017-04-17T07:17:53.223Z,1604
2017-04-17T07:18:53.563Z,1576
2017-04-17T07:19:53.275Z,1572
2017-04-17T07:20:53.312Z,1560
2017-04-17T07:21:53.643Z,1472
2017-04-17T07:22:53.718Z,1420
2017-04-17T07:23:53.131Z,1232
2017-04-17T07:24:53.419Z,988
2017-04-17T07:25:53.765Z,1156
2017-04-17T07:26:53.170Z,956
2017-04-17T07:27:53.534Z,1008
2017-04-17T07:28:53.835Z,852
2017-04-17T07:29:53.861Z,656
2017-04-17T07:30:53.896Z,680
2017-04-17T07:31:53.921Z,528
2017-04-17T07:32:53.951Z,428
2017-04-17T07:33:53.962Z,400
2017-04-17T07:34:53.691Z,436
2017-04-17T07:35:54.020Z,660
2017-04-17T07:36:53.434Z,1108
2017-04-17T07:37:53.770Z,1236
2017-04-17T07:38:53.735Z,1116
2017-04-17T07:39:54.131Z,976
2017-04-17T07:40:54.152Z,1060
2017-04-17T07:41:53.880Z,712
2017-04-17T07:42:53.907Z,872
2017-04-17T07:43:54.190Z,1380
2017-04-17T07:44:54.270Z,1876
2017-04-17T07:45:53.988Z,1832
2017-04-17T07:46:53.705Z,1396
2017-04-17T07:47:54.357Z,1108
2017-04-17T07:48:54.316Z,936
2017-04-17T07:49:54.090Z,1048
2017-04-17T07:50:54.124Z,1120
2017-04-17T07:51:54.465Z,1264
2017-04-17T07:52:53.866Z,1316
2017-04-17T07:53:54.771Z,1116
2017-04-17T07:54:54.541Z,1284
2017-04-17T07:55:54.820Z,1172
2017-04-17T07:56:54.284Z,1264
2017-04-17T07:57:54.305Z,1452
2017-04-17T07:58:54.901Z,1692
2017-04-17T07:59:54.371Z,1416
2017-04-17T08:00:54.087Z,1456
2017-04-17T08:01:54.424Z,1356
2017-04-17T08:02:54.137Z,1464
2017-04-17T08:03:54.726Z,928
2017-04-17T08:04:54.494Z,704
2017-04-17T08:05:54.848Z,624
2017-04-17T08:06:54.551Z,600
2017-04-17T08:07:54.901Z,576
2017-04-17T08:08:54.869Z,664
2017-04-17T08:09:54.951Z,744
2017-04-17T08:10:55.008Z,664
2017-04-17T08:11:55.108Z,540
2017-04-17T08:12:55.033Z,404
2017-04-17T08:13:55.077Z,420
2017-04-17T08:14:54.470Z,492
2017-04-17T08:15:55.110Z,620
2017-04-17T08:16:54.825Z,592
2017-04-17T08:17:55.177Z,596
2017-04-17T08:18:55.449Z,804
2017-04-17T08:19:54.598Z,1300
2017-04-17T08:20:54.930Z,1568
2017-04-17T08:21:54.992Z,1332
2017-04-17T08:22:55.309Z,1268
2017-04-17T08:23:55.269Z,1216
2017-04-17T08:24:55.046Z,920
2017-04-17T08:25:55.066Z,1160
2017-04-17T08:26:55.099Z,1276
2017-04-17T08:27:55.441Z,1744
2017-04-17T08:28:55.696Z,2068
2017-04-17T08:29:55.182Z,1824
2017-04-17T08:30:55.199Z,1676
2017-04-17T08:31:55.539Z,1676
2017-04-17T08:32:55.258Z,2052
2017-04-17T08:33:55.540Z,1996
2017-04-17T08:34:55.626Z,2176
2017-04-17T08:35:55.331Z,2148
2017-04-17T08:36:55.688Z,1992
2017-04-17T08:37:55.403Z,1788
2017-04-17T08:38:55.663Z,1496
2017-04-17T08:39:55.562Z,1184
2017-04-17T08:40:55.790Z,948
2017-04-17T08:41:55.494Z,1040
2017-04-17T08:42:55.831Z,836
2017-04-17T08:43:55.808Z,736
2017-04-17T08:44:55.894Z,640
2017-04-17T08:45:55.291Z,636
2017-04-17T08:46:55.639Z,1016
2017-04-17T08:47:55.982Z,1656
2017-04-17T08:48:56.258Z,1868
2017-04-17T08:49:56.032Z,1508
2017-04-17T08:50:56.060Z,1328
2017-04-17T08:51:56.086Z,1312
2017-04-17T08:52:55.494Z,1472
2017-04-17T08:53:56.399Z,1852
2017-04-17T08:54:56.168Z,2392
2017-04-17T08:55:56.186Z,2736
2017-04-17T08:56:56.197Z,3076
2017-04-17T08:57:56.251Z,2888
2017-04-17T08:58:56.528Z,2812
2017-04-17T08:59:56.297Z,2152
2017-04-17T09:00:56.014Z,2208
2017-04-17T09:01:55.743Z,2440
2017-04-17T09:02:56.382Z,1904
2017-04-17T09:03:56.652Z,1500
2017-04-17T09:04:56.128Z,1592
2017-04-17T09:05:56.689Z,1564
2017-04-17T09:06:56.482Z,1736
2017-04-17T09:07:56.541Z,2540
2017-04-17T09:08:56.483Z,2340
2017-04-17T09:09:56.571Z,1976
2017-04-17T09:10:56.596Z,1768
2017-04-17T09:11:56.624Z,1452
2017-04-17T09:12:56.046Z,1388
2017-04-17T09:13:56.624Z,1380
2017-04-17T09:14:56.730Z,1200
2017-04-17T09:15:56.721Z,1980
2017-04-17T09:16:56.464Z,2024
2017-04-17T09:17:56.781Z,2508
2017-04-17T09:18:57.070Z,3188
2017-04-17T09:19:56.839Z,2432
2017-04-17T09:20:56.544Z,2192
2017-04-17T09:21:56.913Z,1688
2017-04-17T09:22:57.000Z,1516
2017-04-17T09:23:57.199Z,1736
2017-04-17T09:24:56.672Z,1396
2017-04-17T09:25:56.375Z,1492
2017-04-17T09:26:57.032Z,1384
2017-04-17T09:27:57.046Z,1396
2017-04-17T09:28:57.334Z,1312
2017-04-17T09:29:56.482Z,1208
2017-04-17T09:30:56.199Z,1340
2017-04-17T09:31:56.544Z,1096
2017-04-17T09:32:56.559Z,1068
2017-04-17T09:33:56.586Z,988
2017-04-17T09:34:56.955Z,1036
2017-04-17T09:35:57.267Z,844
2017-04-17T09:36:57.293Z,844
2017-04-17T09:37:57.322Z,892
2017-04-17T09:38:57.506Z,824
2017-04-17T09:39:57.067Z,936
2017-04-17T09:40:57.102Z,1248
2017-04-17T09:41:57.135Z,1548
2017-04-17T09:42:57.150Z,1080
2017-04-17T09:43:57.488Z,892
2017-04-17T09:44:57.511Z,736
2017-04-17T09:45:57.223Z,656
2017-04-17T09:46:57.124Z,892
2017-04-17T09:47:57.275Z,864
2017-04-17T09:48:57.633Z,944
2017-04-17T09:49:57.342Z,952
2017-04-17T09:50:57.362Z,1336
2017-04-17T09:51:57.075Z,1584
2017-04-17T09:52:57.724Z,1048
2017-04-17T09:53:57.768Z,1280
2017-04-17T09:54:57.773Z,1328
2017-04-17T09:55:57.529Z,1492
2017-04-17T09:56:57.519Z,1020
2017-04-17T09:57:57.864Z,1444
2017-04-17T09:58:57.885Z,1336
2017-04-17T09:59:58.125Z,1192
2017-04-17T10:00:57.942Z,1088
2017-04-17T10:01:57.970Z,692
2017-04-17T10:02:58.001Z,596
2017-04-17T10:03:58.209Z,596
2017-04-17T10:04:59.002Z,732
2017-04-17T10:05:58.078Z,716
2017-04-17T10:06:57.487Z,560
2017-04-17T10:07:57.831Z,448
2017-04-17T10:08:58.157Z,528
2017-04-17T10:09:58.684Z,500
2017-04-17T10:10:57.589Z,452
2017-04-17T10:11:57.607Z,684
2017-04-17T10:12:58.273Z,1248
2017-04-17T10:13:57.982Z,1576
2017-04-17T10:14:58.266Z,1820
2017-04-17T10:15:58.037Z,1536
2017-04-17T10:16:58.057Z,1488
2017-04-17T10:17:58.408Z,1908
2017-04-17T10:18:58.116Z,2036
2017-04-17T10:19:58.080Z,1988
2017-04-17T10:20:58.169Z,2448
2017-04-17T10:21:58.197Z,2252
2017-04-17T10:22:58.222Z,1596
2017-04-17T10:23:58.576Z,1268
2017-04-17T10:24:58.537Z,1636
2017-04-17T10:25:58.617Z,1624
2017-04-17T10:26:58.351Z,1684
2017-04-17T10:27:58.364Z,2052
2017-04-17T10:28:58.066Z,1744
2017-04-17T10:29:58.660Z,1928
2017-04-17T10:30:58.124Z,2004
2017-04-17T10:31:58.773Z,1888
2017-04-17T10:32:58.803Z,1824
2017-04-17T10:33:58.526Z,2308
2017-04-17T10:34:58.795Z,2344
2017-04-17T10:35:58.581Z,2240
2017-04-17T10:36:59.105Z,2292
2017-04-17T10:37:58.629Z,2536
2017-04-17T10:38:58.707Z,2520
2017-04-17T10:39:59.243Z,2860
2017-04-17T10:40:58.395Z,3304
2017-04-17T10:41:58.736Z,3492
2017-04-17T10:42:58.761Z,3008
2017-04-17T10:43:58.790Z,3844
2017-04-17T10:44:59.068Z,3792
2017-04-17T10:45:59.157Z,4360
2017-04-17T10:46:59.045Z,5128
2017-04-17T10:47:58.893Z,4676
2017-04-17T10:48:59.235Z,4108
2017-04-17T10:49:59.510Z,4400
2017-04-17T10:50:59.002Z,4104
2017-04-17T10:51:58.689Z,4040
2017-04-17T10:52:59.032Z,4268
2017-04-17T10:53:58.747Z,3904
2017-04-17T10:54:59.652Z,3836
2017-04-17T10:55:59.607Z,2928
2017-04-17T10:56:59.453Z,3604
2017-04-17T10:57:59.476Z,2984
2017-04-17T10:58:59.514Z,3108
2017-04-17T10:59:59.474Z,3504
2017-04-17T11:00:59.560Z,4336
2017-04-17T11:01:59.273Z,2824
2017-04-17T11:02:59.314Z,4200
2017-04-17T11:03:59.654Z,5792
2017-04-17T11:04:59.603Z,4860
2017-04-17T11:05:59.688Z,6944
2017-04-17T11:06:59.420Z,7008
2017-04-17T11:07:59.756Z,6264
2017-04-17T11:08:59.469Z,7904
2017-04-17T11:09:59.430Z,5964
2017-04-17T11:10:59.523Z,7928
2017-04-17T11:11:59.547Z,7992
2017-04-17T11:12:59.890Z,8128
2017-04-17T11:13:59.917Z,6240
2017-04-17T11:15:00.196Z,5036
2017-04-17T11:15:59.967Z,3800
2017-04-17T11:17:00.000Z,4232
2017-04-17T11:17:59.713Z,8424
2017-04-17T11:18:59.747Z,4632
2017-04-17T11:20:00.324Z,4392
2017-04-17T11:21:00.114Z,3496
2017-04-17T11:22:00.128Z,3532
2017-04-17T11:23:00.181Z,4160
2017-04-17T11:23:59.881Z,4472
2017-04-17T11:25:00.464Z,4052
2017-04-17T11:26:00.250Z,3312
2017-04-17T11:26:59.955Z,2840
2017-04-17T11:28:00.302Z,3076
2017-04-17T11:29:00.040Z,2104
2017-04-17T11:30:00.609Z,3516
2017-04-17T11:30:59.753Z,1676
2017-04-17T11:32:00.107Z,676
2017-04-17T11:32:59.816Z,304
2017-04-17T11:34:00.472Z,452
2017-04-17T11:35:00.457Z,472
2017-04-17T11:35:59.894Z,432
2017-04-17T11:37:00.234Z,484
2017-04-17T11:38:00.685Z,384
2017-04-17T11:39:00.288Z,348
2017-04-17T11:40:00.889Z,336
2017-04-17T11:41:00.330Z,420
2017-04-17T11:42:00.058Z,684
2017-04-17T11:43:00.390Z,816
2017-04-17T11:44:00.740Z,816
2017-04-17T11:45:01.023Z,708
2017-04-17T11:46:00.554Z,672
2017-04-17T11:47:00.506Z,916
2017-04-17T11:48:00.534Z,1624
2017-04-17T11:49:00.887Z,1540
2017-04-17T11:50:01.164Z,1204
2017-04-17T11:51:00.309Z,1212
2017-04-17T11:52:00.973Z,1188
2017-04-17T11:53:00.988Z,1076
2017-04-17T11:54:01.219Z,1068
2017-04-17T11:55:01.286Z,948
2017-04-17T11:56:01.071Z,876
2017-04-17T11:57:00.782Z,896
2017-04-17T11:58:01.124Z,868
2017-04-17T11:59:01.144Z,848
2017-04-17T12:00:01.579Z,836
2017-04-17T12:01:00.268Z,860
2017-04-17T12:02:01.233Z,960
2017-04-17T12:03:01.263Z,1144
2017-04-17T12:04:01.291Z,1292
2017-04-17T12:05:01.251Z,1424
2017-04-17T12:06:01.344Z,1540
2017-04-17T12:07:01.048Z,1636
2017-04-17T12:08:01.395Z,1860
2017-04-17T12:09:01.423Z,1876
2017-04-17T12:10:01.703Z,1752
2017-04-17T12:11:01.169Z,1668
2017-04-17T12:12:01.517Z,1716
2017-04-17T12:13:01.221Z,1668
2017-04-17T12:14:00.622Z,1648
2017-04-17T12:15:01.523Z,1800
2017-04-17T12:16:01.615Z,2296
2017-04-17T12:17:01.636Z,2652
2017-04-17T12:18:01.377Z,3784
2017-04-17T12:19:01.386Z,3796
2017-04-17T12:20:01.671Z,3348
2017-04-17T12:21:01.439Z,2860
2017-04-17T12:22:01.780Z,3668
2017-04-17T12:23:01.497Z,4808
2017-04-17T12:24:01.837Z,8776
2017-04-17T12:25:01.798Z,60384
2017-04-17T12:26:01.900Z,76768
2017-04-17T12:27:01.915Z,23200
2017-04-17T12:28:01.769Z,78464
2017-04-17T12:29:01.978Z,26400
2017-04-17T12:30:02.246Z,9024
2017-04-17T12:31:01.402Z,46880
2017-04-17T12:32:01.753Z,35424
2017-04-17T12:33:01.769Z,13612
2017-04-17T12:34:01.794Z,11092
2017-04-17T12:35:02.386Z,12196
2017-04-17T12:36:02.169Z,10176
2017-04-17T12:37:01.880Z,10388
2017-04-17T12:38:02.228Z,9756
2017-04-17T12:39:02.246Z,9448
2017-04-17T12:40:02.528Z,8340
2017-04-17T12:41:02.314Z,7708
2017-04-17T12:42:01.723Z,4884
2017-04-17T12:43:02.048Z,4840
2017-04-17T12:44:02.484Z,8540
2017-04-17T12:45:02.572Z,7356
2017-04-17T12:46:02.148Z,6340
2017-04-17T12:47:02.189Z,6244
2017-04-17T12:48:02.511Z,4872
2017-04-17T12:49:02.529Z,4320
2017-04-17T12:50:02.257Z,2624
2017-04-17T12:51:02.770Z,3392
2017-04-17T12:52:02.611Z,4904
2017-04-17T12:53:02.700Z,2916
2017-04-17T12:54:02.669Z,2208
2017-04-17T12:55:02.962Z,2544
2017-04-17T12:56:02.721Z,2776
2017-04-17T12:57:02.757Z,3768
2017-04-17T12:58:02.492Z,8308
2017-04-17T12:59:02.820Z,27680
2017-04-17T13:00:03.105Z,37216
2017-04-17T13:01:02.586Z,15684
2017-04-17T13:02:02.278Z,12492
2017-04-17T13:03:02.308Z,61408
2017-04-17T13:04:02.340Z,17724
2017-04-17T13:05:03.237Z,47808
2017-04-17T13:06:03.018Z,6376
2017-04-17T13:07:02.735Z,4576
2017-04-17T13:08:03.076Z,6984
2017-04-17T13:09:03.111Z,3540
2017-04-17T13:10:03.424Z,2496
2017-04-17T13:11:02.887Z,2412
2017-04-17T13:12:02.878Z,2856
2017-04-17T13:13:02.604Z,2428
2017-04-17T13:14:03.255Z,1820
2017-04-17T13:15:03.629Z,1792
2017-04-17T13:16:02.994Z,2556
2017-04-17T13:17:03.007Z,2636
2017-04-17T13:18:02.415Z,2292
2017-04-17T13:19:03.067Z,2112
2017-04-17T13:20:03.677Z,2144
2017-04-17T13:21:03.137Z,1940
2017-04-17T13:22:03.478Z,2200
2017-04-17T13:23:02.895Z,2264
2017-04-17T13:24:03.208Z,1596
2017-04-17T13:25:03.795Z,1400
2017-04-17T13:26:03.315Z,1316
2017-04-17T13:27:03.604Z,1444
2017-04-17T13:28:03.643Z,1592
2017-04-17T13:29:03.048Z,2004
2017-04-17T13:30:03.702Z,2244
2017-04-17T13:31:03.772Z,2616
2017-04-17T13:32:03.159Z,2860
2017-04-17T13:33:03.479Z,2720
2017-04-17T13:34:03.819Z,2012
2017-04-17T13:35:04.070Z,1856
2017-04-17T13:36:03.873Z,1932
2017-04-17T13:37:03.910Z,1856
2017-04-17T13:38:03.940Z,1980
2017-04-17T13:39:03.957Z,2024
2017-04-17T13:40:03.996Z,1660
2017-04-17T13:41:04.277Z,1468
2017-04-17T13:42:04.066Z,1636
2017-04-17T13:43:04.080Z,1864
2017-04-17T13:44:03.792Z,1976
2017-04-17T13:45:03.829Z,1968
2017-04-17T13:46:04.101Z,1632
2017-04-17T13:47:04.193Z,1404
2017-04-17T13:48:03.600Z,1500
2017-04-17T13:49:03.931Z,1700
2017-04-17T13:50:04.281Z,1856
2017-04-17T13:51:04.237Z,2032
2017-04-17T13:52:04.334Z,2132
2017-04-17T13:53:04.050Z,2316
2017-04-17T13:54:04.392Z,2520
2017-04-17T13:55:04.416Z,2784